sensor_id;sensor_type;location;lat;lon;timestamp;temperature;humidity
10312;DHT22;5201;48.776;9.128;2024-02-23T00:01:45;6.70;99.90
10312;DHT22;5201;48.776;9.128;2024-02-23T00:04:11;6.70;99.90
10312;DHT22;5201;48.776;9.128;2024-02-23T00:06:37;6.80;99.90
10312;DHT22;5201;48.776;9.128;2024-02-23T00:09:02;6.90;99.90
10312;DHT22;5201;48.776;9.128;2024-02-23T00:11:28;7.00;99.90
10312;DHT22;5201;48.776;9.128;2024-02-23T00:13:54;6.90;99.90
10312;DHT22;5201;48.776;9.128;2024-02-23T00:16:20;6.90;99.90
10312;DHT22;5201;48.776;9.128;2024-02-23T00:18:46;7.00;99.90
10312;DHT22;5201;48.776;9.128;2024-02-23T00:21:11;6.90;99.90
10312;DHT22;5201;48.776;9.128;2024-02-23T00:23:37;6.90;99.90
10312;DHT22;5201;48.776;9.128;2024-02-23T00:26:03;6.80;99.90
10312;DHT22;5201;48.776;9.128;2024-02-23T00:28:28;6.80;99.90
10312;DHT22;5201;48.776;9.128;2024-02-23T00:30:54;7.10;99.90
10312;DHT22;5201;48.776;9.128;2024-02-23T00:33:19;6.90;99.90
10312;DHT22;5201;48.776;9.128;2024-02-23T00:35:45;7.00;99.90
10312;DHT22;5201;48.776;9.128;2024-02-23T00:38:11;6.90;99.90
10312;DHT22;5201;48.776;9.128;2024-02-23T00:40:36;6.90;99.90
10312;DHT22;5201;48.776;9.128;2024-02-23T00:43:02;7.00;99.90
10312;DHT22;5201;48.776;9.128;2024-02-23T00:45:28;7.00;99.90
10312;DHT22;5201;48.776;9.128;2024-02-23T00:47:54;7.10;99.90
10312;DHT22;5201;48.776;9.128;2024-02-23T00:50:19;7.00;99.90
10312;DHT22;5201;48.776;9.128;2024-02-23T00:52:45;7.00;99.90
10312;DHT22;5201;48.776;9.128;2024-02-23T00:55:11;7.20;99.90
10312;DHT22;5201;48.776;9.128;2024-02-23T00:57:37;7.70;99.90
10312;DHT22;5201;48.776;9.128;2024-02-23T01:00:04;7.30;99.90
10312;DHT22;5201;48.776;9.128;2024-02-23T01:02:34;7.30;99.90
10312;DHT22;5201;48.776;9.128;2024-02-23T01:05:00;7.40;99.90
10312;DHT22;5201;48.776;9.128;2024-02-23T01:07:25;7.50;99.90
10312;DHT22;5201;48.776;9.128;2024-02-23T01:09:51;7.50;99.90
10312;DHT22;5201;48.776;9.128;2024-02-23T01:12:17;7.40;99.90
10312;DHT22;5201;48.776;9.128;2024-02-23T01:14:42;7.40;99.90
10312;DHT22;5201;48.776;9.128;2024-02-23T01:17:08;7.30;99.90
10312;DHT22;5201;48.776;9.128;2024-02-23T01:19:34;7.20;99.90
10312;DHT22;5201;48.776;9.128;2024-02-23T01:21:59;7.20;99.90
10312;DHT22;5201;48.776;9.128;2024-02-23T01:24:28;7.30;99.90
10312;DHT22;5201;48.776;9.128;2024-02-23T01:26:55;7.40;99.90
10312;DHT22;5201;48.776;9.128;2024-02-23T01:29:22;7.40;99.90
10312;DHT22;5201;48.776;9.128;2024-02-23T01:31:48;7.30;99.90
10312;DHT22;5201;48.776;9.128;2024-02-23T01:34:14;7.30;99.90
10312;DHT22;5201;48.776;9.128;2024-02-23T01:36:40;7.40;99.90
10312;DHT22;5201;48.776;9.128;2024-02-23T01:39:05;7.40;99.90
10312;DHT22;5201;48.776;9.128;2024-02-23T01:41:31;7.40;99.90
10312;DHT22;5201;48.776;9.128;2024-02-23T01:43:57;7.90;99.90
10312;DHT22;5201;48.776;9.128;2024-02-23T01:46:23;7.40;99.90
10312;DHT22;5201;48.776;9.128;2024-02-23T01:48:49;7.40;99.90
10312;DHT22;5201;48.776;9.128;2024-02-23T01:51:15;7.40;99.90
10312;DHT22;5201;48.776;9.128;2024-02-23T01:53:41;7.10;99.90
10312;DHT22;5201;48.776;9.128;2024-02-23T01:56:06;7.20;99.90
10312;DHT22;5201;48.776;9.128;2024-02-23T01:58:34;7.30;99.90
10312;DHT22;5201;48.776;9.128;2024-02-23T02:01:00;7.60;99.90
10312;DHT22;5201;48.776;9.128;2024-02-23T02:03:26;7.40;99.90
10312;DHT22;5201;48.776;9.128;2024-02-23T02:05:53;7.40;99.90
10312;DHT22;5201;48.776;9.128;2024-02-23T02:08:20;7.30;99.90
10312;DHT22;5201;48.776;9.128;2024-02-23T02:10:45;7.30;99.90
10312;DHT22;5201;48.776;9.128;2024-02-23T02:13:12;7.40;99.90
10312;DHT22;5201;48.776;9.128;2024-02-23T02:15:38;7.20;99.90
10312;DHT22;5201;48.776;9.128;2024-02-23T02:18:04;7.30;99.90
10312;DHT22;5201;48.776;9.128;2024-02-23T02:20:32;7.20;99.90
10312;DHT22;5201;48.776;9.128;2024-02-23T02:22:59;7.30;99.90
10312;DHT22;5201;48.776;9.128;2024-02-23T02:25:24;7.50;99.90
10312;DHT22;5201;48.776;9.128;2024-02-23T02:27:50;7.30;99.90
10312;DHT22;5201;48.776;9.128;2024-02-23T02:30:16;7.10;99.90
10312;DHT22;5201;48.776;9.128;2024-02-23T02:32:42;7.20;99.90
10312;DHT22;5201;48.776;9.128;2024-02-23T02:35:09;7.30;99.90
10312;DHT22;5201;48.776;9.128;2024-02-23T02:37:35;7.20;99.90
10312;DHT22;5201;48.776;9.128;2024-02-23T02:40:01;7.10;99.90
10312;DHT22;5201;48.776;9.128;2024-02-23T02:42:28;7.10;99.90
10312;DHT22;5201;48.776;9.128;2024-02-23T02:44:54;7.00;99.90
10312;DHT22;5201;48.776;9.128;2024-02-23T02:47:19;7.00;99.90
10312;DHT22;5201;48.776;9.128;2024-02-23T02:49:45;6.90;99.90
10312;DHT22;5201;48.776;9.128;2024-02-23T02:52:11;6.80;99.90
10312;DHT22;5201;48.776;9.128;2024-02-23T02:54:36;6.80;99.90
10312;DHT22;5201;48.776;9.128;2024-02-23T02:57:02;5.80;99.90
10312;DHT22;5201;48.776;9.128;2024-02-23T02:59:28;6.80;99.90
10312;DHT22;5201;48.776;9.128;2024-02-23T03:01:53;6.70;99.90
10312;DHT22;5201;48.776;9.128;2024-02-23T03:04:19;6.80;99.90
10312;DHT22;5201;48.776;9.128;2024-02-23T03:06:45;6.80;99.90
10312;DHT22;5201;48.776;9.128;2024-02-23T03:09:10;6.80;99.90
10312;DHT22;5201;48.776;9.128;2024-02-23T03:11:36;6.70;99.90
10312;DHT22;5201;48.776;9.128;2024-02-23T03:14:02;6.70;99.90
10312;DHT22;5201;48.776;9.128;2024-02-23T03:16:28;6.80;99.90
10312;DHT22;5201;48.776;9.128;2024-02-23T03:18:56;7.50;99.90
10312;DHT22;5201;48.776;9.128;2024-02-23T03:21:22;6.70;99.90
10312;DHT22;5201;48.776;9.128;2024-02-23T03:23:47;6.70;99.90
10312;DHT22;5201;48.776;9.128;2024-02-23T03:26:13;6.80;99.90
10312;DHT22;5201;48.776;9.128;2024-02-23T03:28:42;6.90;99.90
10312;DHT22;5201;48.776;9.128;2024-02-23T03:31:08;6.80;99.90
10312;DHT22;5201;48.776;9.128;2024-02-23T03:33:33;6.80;99.90
10312;DHT22;5201;48.776;9.128;2024-02-23T03:35:59;6.70;99.90
10312;DHT22;5201;48.776;9.128;2024-02-23T03:38:25;6.80;99.90
10312;DHT22;5201;48.776;9.128;2024-02-23T03:40:50;7.00;99.90
10312;DHT22;5201;48.776;9.128;2024-02-23T03:43:16;7.00;99.90
10312;DHT22;5201;48.776;9.128;2024-02-23T03:45:41;7.00;99.90
10312;DHT22;5201;48.776;9.128;2024-02-23T03:48:07;6.90;99.90
10312;DHT22;5201;48.776;9.128;2024-02-23T03:50:33;6.90;99.90
10312;DHT22;5201;48.776;9.128;2024-02-23T03:52:58;6.80;99.90
10312;DHT22;5201;48.776;9.128;2024-02-23T03:55:24;6.80;99.90
10312;DHT22;5201;48.776;9.128;2024-02-23T03:57:49;6.80;99.90
10312;DHT22;5201;48.776;9.128;2024-02-23T04:00:15;6.90;99.90
10312;DHT22;5201;48.776;9.128;2024-02-23T04:02:41;7.00;99.90
10312;DHT22;5201;48.776;9.128;2024-02-23T04:05:07;7.00;99.90
10312;DHT22;5201;48.776;9.128;2024-02-23T04:07:32;7.00;99.90
10312;DHT22;5201;48.776;9.128;2024-02-23T04:09:58;7.10;99.90
10312;DHT22;5201;48.776;9.128;2024-02-23T04:12:24;7.10;99.90
10312;DHT22;5201;48.776;9.128;2024-02-23T04:14:50;7.10;99.90
10312;DHT22;5201;48.776;9.128;2024-02-23T04:17:15;7.20;99.90
10312;DHT22;5201;48.776;9.128;2024-02-23T04:19:42;7.20;99.90
10312;DHT22;5201;48.776;9.128;2024-02-23T04:22:09;7.10;99.90
10312;DHT22;5201;48.776;9.128;2024-02-23T04:24:39;7.00;99.90
10312;DHT22;5201;48.776;9.128;2024-02-23T04:27:05;6.70;99.90
10312;DHT22;5201;48.776;9.128;2024-02-23T04:29:31;6.70;99.90
10312;DHT22;5201;48.776;9.128;2024-02-23T04:32:00;6.50;99.90
10312;DHT22;5201;48.776;9.128;2024-02-23T04:34:27;6.50;99.90
10312;DHT22;5201;48.776;9.128;2024-02-23T04:36:52;6.60;99.90
10312;DHT22;5201;48.776;9.128;2024-02-23T04:39:18;6.70;99.90
10312;DHT22;5201;48.776;9.128;2024-02-23T04:41:44;6.80;99.90
10312;DHT22;5201;48.776;9.128;2024-02-23T04:44:09;6.70;99.90
10312;DHT22;5201;48.776;9.128;2024-02-23T04:46:35;6.60;99.90
10312;DHT22;5201;48.776;9.128;2024-02-23T04:49:01;6.70;99.90
10312;DHT22;5201;48.776;9.128;2024-02-23T04:51:27;6.70;99.90
10312;DHT22;5201;48.776;9.128;2024-02-23T04:53:52;6.80;99.90
10312;DHT22;5201;48.776;9.128;2024-02-23T04:56:18;6.80;99.90
10312;DHT22;5201;48.776;9.128;2024-02-23T04:58:44;6.90;99.90
10312;DHT22;5201;48.776;9.128;2024-02-23T05:01:10;7.00;99.90
10312;DHT22;5201;48.776;9.128;2024-02-23T05:03:39;7.00;99.90
10312;DHT22;5201;48.776;9.128;2024-02-23T05:06:05;7.00;99.90
10312;DHT22;5201;48.776;9.128;2024-02-23T05:08:30;7.00;99.90
10312;DHT22;5201;48.776;9.128;2024-02-23T05:10:57;7.10;99.90
10312;DHT22;5201;48.776;9.128;2024-02-23T05:13:23;7.10;99.90
10312;DHT22;5201;48.776;9.128;2024-02-23T05:15:49;7.10;99.90
10312;DHT22;5201;48.776;9.128;2024-02-23T05:18:15;7.10;99.90
10312;DHT22;5201;48.776;9.128;2024-02-23T05:20:40;7.10;99.90
10312;DHT22;5201;48.776;9.128;2024-02-23T05:23:06;7.10;99.90
10312;DHT22;5201;48.776;9.128;2024-02-23T05:25:32;7.50;99.90
10312;DHT22;5201;48.776;9.128;2024-02-23T05:27:57;6.90;99.90
10312;DHT22;5201;48.776;9.128;2024-02-23T05:30:23;6.70;99.90
10312;DHT22;5201;48.776;9.128;2024-02-23T05:32:49;6.50;99.90
10312;DHT22;5201;48.776;9.128;2024-02-23T05:35:14;6.50;99.90
10312;DHT22;5201;48.776;9.128;2024-02-23T05:37:41;6.70;99.90
10312;DHT22;5201;48.776;9.128;2024-02-23T05:40:07;6.60;99.90
10312;DHT22;5201;48.776;9.128;2024-02-23T05:42:38;6.70;99.90
10312;DHT22;5201;48.776;9.128;2024-02-23T05:45:05;7.30;99.90
10312;DHT22;5201;48.776;9.128;2024-02-23T05:47:37;6.70;99.90
10312;DHT22;5201;48.776;9.128;2024-02-23T05:50:04;6.50;99.90
10312;DHT22;5201;48.776;9.128;2024-02-23T05:52:31;6.50;99.90
10312;DHT22;5201;48.776;9.128;2024-02-23T05:54:57;6.90;99.90
10312;DHT22;5201;48.776;9.128;2024-02-23T05:57:28;6.50;99.90
10312;DHT22;5201;48.776;9.128;2024-02-23T05:59:54;6.40;99.90
10312;DHT22;5201;48.776;9.128;2024-02-23T06:02:24;6.50;99.90
10312;DHT22;5201;48.776;9.128;2024-02-23T06:04:49;6.60;99.90
10312;DHT22;5201;48.776;9.128;2024-02-23T06:07:15;6.60;99.90
10312;DHT22;5201;48.776;9.128;2024-02-23T06:09:46;6.60;99.90
10312;DHT22;5201;48.776;9.128;2024-02-23T06:12:12;6.60;99.90
10312;DHT22;5201;48.776;9.128;2024-02-23T06:14:37;6.60;99.90
10312;DHT22;5201;48.776;9.128;2024-02-23T06:17:03;6.60;99.90
10312;DHT22;5201;48.776;9.128;2024-02-23T06:19:29;6.50;99.90
10312;DHT22;5201;48.776;9.128;2024-02-23T06:21:55;6.30;99.90
10312;DHT22;5201;48.776;9.128;2024-02-23T06:24:20;6.30;99.90
10312;DHT22;5201;48.776;9.128;2024-02-23T06:26:46;6.20;99.90
10312;DHT22;5201;48.776;9.128;2024-02-23T06:29:14;6.30;99.90
10312;DHT22;5201;48.776;9.128;2024-02-23T06:31:40;6.30;99.90
10312;DHT22;5201;48.776;9.128;2024-02-23T06:34:07;6.30;99.90
10312;DHT22;5201;48.776;9.128;2024-02-23T06:36:33;6.30;99.90
10312;DHT22;5201;48.776;9.128;2024-02-23T06:38:58;6.40;99.90
10312;DHT22;5201;48.776;9.128;2024-02-23T06:41:24;4.70;99.90
10312;DHT22;5201;48.776;9.128;2024-02-23T06:43:50;6.40;99.90
10312;DHT22;5201;48.776;9.128;2024-02-23T06:46:18;6.40;99.90
10312;DHT22;5201;48.776;9.128;2024-02-23T06:48:45;6.40;99.90
10312;DHT22;5201;48.776;9.128;2024-02-23T06:51:11;6.50;99.90
10312;DHT22;5201;48.776;9.128;2024-02-23T06:53:37;6.60;99.90
10312;DHT22;5201;48.776;9.128;2024-02-23T06:56:03;7.00;99.90
10312;DHT22;5201;48.776;9.128;2024-02-23T06:58:29;6.60;99.90
10312;DHT22;5201;48.776;9.128;2024-02-23T07:00:55;6.60;99.90
10312;DHT22;5201;48.776;9.128;2024-02-23T07:03:20;6.70;99.90
10312;DHT22;5201;48.776;9.128;2024-02-23T07:05:46;7.20;99.90
10312;DHT22;5201;48.776;9.128;2024-02-23T07:08:12;6.70;99.90
10312;DHT22;5201;48.776;9.128;2024-02-23T07:10:38;6.60;99.90
10312;DHT22;5201;48.776;9.128;2024-02-23T07:13:04;6.60;99.90
10312;DHT22;5201;48.776;9.128;2024-02-23T07:15:29;6.60;99.90
10312;DHT22;5201;48.776;9.128;2024-02-23T07:17:55;6.70;99.90
10312;DHT22;5201;48.776;9.128;2024-02-23T07:20:22;6.70;99.90
10312;DHT22;5201;48.776;9.128;2024-02-23T07:22:48;6.70;99.90
10312;DHT22;5201;48.776;9.128;2024-02-23T07:25:20;6.70;99.90
10312;DHT22;5201;48.776;9.128;2024-02-23T07:27:46;6.70;99.90
10312;DHT22;5201;48.776;9.128;2024-02-23T07:30:14;6.70;99.90
10312;DHT22;5201;48.776;9.128;2024-02-23T07:32:40;6.70;99.90
10312;DHT22;5201;48.776;9.128;2024-02-23T07:35:06;6.70;99.90
10312;DHT22;5201;48.776;9.128;2024-02-23T07:37:32;6.70;99.90
10312;DHT22;5201;48.776;9.128;2024-02-23T07:39:57;6.70;99.90
10312;DHT22;5201;48.776;9.128;2024-02-23T07:42:23;6.80;99.90
10312;DHT22;5201;48.776;9.128;2024-02-23T07:44:48;6.90;99.90
10312;DHT22;5201;48.776;9.128;2024-02-23T07:47:14;6.80;99.90
10312;DHT22;5201;48.776;9.128;2024-02-23T07:49:40;7.20;99.90
10312;DHT22;5201;48.776;9.128;2024-02-23T07:52:08;7.10;99.90
10312;DHT22;5201;48.776;9.128;2024-02-23T07:54:34;6.60;99.90
10312;DHT22;5201;48.776;9.128;2024-02-23T07:56:59;6.60;99.90
10312;DHT22;5201;48.776;9.128;2024-02-23T07:59:25;6.80;99.90
10312;DHT22;5201;48.776;9.128;2024-02-23T08:01:50;6.90;99.90
10312;DHT22;5201;48.776;9.128;2024-02-23T08:04:16;6.80;99.90
10312;DHT22;5201;48.776;9.128;2024-02-23T08:06:42;6.60;99.90
10312;DHT22;5201;48.776;9.128;2024-02-23T08:09:08;6.70;99.90
10312;DHT22;5201;48.776;9.128;2024-02-23T08:11:34;6.80;99.90
10312;DHT22;5201;48.776;9.128;2024-02-23T08:14:00;6.90;99.90
10312;DHT22;5201;48.776;9.128;2024-02-23T08:16:28;6.90;99.90
10312;DHT22;5201;48.776;9.128;2024-02-23T08:18:54;6.90;99.90
10312;DHT22;5201;48.776;9.128;2024-02-23T08:21:19;7.00;99.90
10312;DHT22;5201;48.776;9.128;2024-02-23T08:23:45;7.30;99.90
10312;DHT22;5201;48.776;9.128;2024-02-23T08:26:11;7.10;99.90
10312;DHT22;5201;48.776;9.128;2024-02-23T08:28:37;7.10;99.90
10312;DHT22;5201;48.776;9.128;2024-02-23T08:31:02;7.20;99.90
10312;DHT22;5201;48.776;9.128;2024-02-23T08:33:28;7.20;99.90
10312;DHT22;5201;48.776;9.128;2024-02-23T08:35:54;7.10;99.90
10312;DHT22;5201;48.776;9.128;2024-02-23T08:38:19;6.80;99.90
10312;DHT22;5201;48.776;9.128;2024-02-23T08:40:45;6.60;99.90
10312;DHT22;5201;48.776;9.128;2024-02-23T08:43:11;6.60;99.90
10312;DHT22;5201;48.776;9.128;2024-02-23T08:45:36;6.50;99.90
10312;DHT22;5201;48.776;9.128;2024-02-23T08:48:02;6.60;99.90
10312;DHT22;5201;48.776;9.128;2024-02-23T08:50:29;6.50;99.90
10312;DHT22;5201;48.776;9.128;2024-02-23T08:52:54;6.60;99.90
10312;DHT22;5201;48.776;9.128;2024-02-23T08:55:20;6.70;99.90
10312;DHT22;5201;48.776;9.128;2024-02-23T08:57:47;6.90;99.90
10312;DHT22;5201;48.776;9.128;2024-02-23T09:00:13;6.80;99.90
10312;DHT22;5201;48.776;9.128;2024-02-23T09:02:39;6.80;99.90
10312;DHT22;5201;48.776;9.128;2024-02-23T09:05:08;6.70;99.90
10312;DHT22;5201;48.776;9.128;2024-02-23T09:07:33;6.70;99.90
10312;DHT22;5201;48.776;9.128;2024-02-23T09:09:59;6.50;99.90
10312;DHT22;5201;48.776;9.128;2024-02-23T09:12:25;7.50;99.90
10312;DHT22;5201;48.776;9.128;2024-02-23T09:14:51;6.30;99.90
10312;DHT22;5201;48.776;9.128;2024-02-23T09:17:17;6.30;99.90
10312;DHT22;5201;48.776;9.128;2024-02-23T09:19:44;6.40;99.90
10312;DHT22;5201;48.776;9.128;2024-02-23T09:22:09;6.20;99.90
10312;DHT22;5201;48.776;9.128;2024-02-23T09:24:38;6.20;99.90
10312;DHT22;5201;48.776;9.128;2024-02-23T09:27:04;6.50;99.90
10312;DHT22;5201;48.776;9.128;2024-02-23T09:29:29;6.60;99.90
10312;DHT22;5201;48.776;9.128;2024-02-23T09:31:55;6.50;99.90
10312;DHT22;5201;48.776;9.128;2024-02-23T09:34:20;6.50;99.90
10312;DHT22;5201;48.776;9.128;2024-02-23T09:36:46;7.00;99.90
10312;DHT22;5201;48.776;9.128;2024-02-23T09:39:12;6.70;99.90
10312;DHT22;5201;48.776;9.128;2024-02-23T09:41:39;6.60;99.90
10312;DHT22;5201;48.776;9.128;2024-02-23T09:44:05;6.80;99.90
10312;DHT22;5201;48.776;9.128;2024-02-23T09:46:33;6.90;99.90
10312;DHT22;5201;48.776;9.128;2024-02-23T09:48:59;7.10;99.90
10312;DHT22;5201;48.776;9.128;2024-02-23T09:51:25;7.00;99.90
10312;DHT22;5201;48.776;9.128;2024-02-23T09:53:51;6.90;99.90
10312;DHT22;5201;48.776;9.128;2024-02-23T09:56:17;7.10;99.90
10312;DHT22;5201;48.776;9.128;2024-02-23T09:58:46;7.30;99.90
10312;DHT22;5201;48.776;9.128;2024-02-23T10:01:17;7.60;99.90
10312;DHT22;5201;48.776;9.128;2024-02-23T10:03:47;7.50;99.90
10312;DHT22;5201;48.776;9.128;2024-02-23T10:06:13;7.70;99.90
10312;DHT22;5201;48.776;9.128;2024-02-23T10:08:38;7.80;99.90
10312;DHT22;5201;48.776;9.128;2024-02-23T10:11:06;7.70;99.90
10312;DHT22;5201;48.776;9.128;2024-02-23T10:13:32;7.50;99.90
10312;DHT22;5201;48.776;9.128;2024-02-23T10:15:58;7.40;99.90
10312;DHT22;5201;48.776;9.128;2024-02-23T10:18:24;7.70;99.90
10312;DHT22;5201;48.776;9.128;2024-02-23T10:20:49;7.80;99.90
10312;DHT22;5201;48.776;9.128;2024-02-23T10:23:18;7.80;99.90
10312;DHT22;5201;48.776;9.128;2024-02-23T10:25:45;7.70;99.90
10312;DHT22;5201;48.776;9.128;2024-02-23T10:28:12;7.60;99.90
10312;DHT22;5201;48.776;9.128;2024-02-23T10:30:37;7.80;99.90
10312;DHT22;5201;48.776;9.128;2024-02-23T10:33:06;7.70;99.90
10312;DHT22;5201;48.776;9.128;2024-02-23T10:35:35;7.80;99.90
10312;DHT22;5201;48.776;9.128;2024-02-23T10:38:08;7.70;99.90
10312;DHT22;5201;48.776;9.128;2024-02-23T10:40:39;7.80;99.90
10312;DHT22;5201;48.776;9.128;2024-02-23T10:43:12;7.80;99.90
10312;DHT22;5201;48.776;9.128;2024-02-23T10:45:41;7.80;99.90
10312;DHT22;5201;48.776;9.128;2024-02-23T10:48:09;8.00;99.90
10312;DHT22;5201;48.776;9.128;2024-02-23T10:50:36;8.00;99.90
10312;DHT22;5201;48.776;9.128;2024-02-23T10:53:04;8.10;99.90
10312;DHT22;5201;48.776;9.128;2024-02-23T10:55:32;8.20;99.90
10312;DHT22;5201;48.776;9.128;2024-02-23T10:57:59;8.40;99.90
10312;DHT22;5201;48.776;9.128;2024-02-23T11:00:25;8.40;99.90
10312;DHT22;5201;48.776;9.128;2024-02-23T11:02:52;8.30;99.90
10312;DHT22;5201;48.776;9.128;2024-02-23T11:05:19;8.40;99.90
10312;DHT22;5201;48.776;9.128;2024-02-23T11:07:48;8.50;99.90
10312;DHT22;5201;48.776;9.128;2024-02-23T11:10:18;8.30;99.90
10312;DHT22;5201;48.776;9.128;2024-02-23T11:12:44;9.00;99.90
10312;DHT22;5201;48.776;9.128;2024-02-23T11:15:26;8.50;99.90
10312;DHT22;5201;48.776;9.128;2024-02-23T11:17:52;8.50;99.90
10312;DHT22;5201;48.776;9.128;2024-02-23T11:20:18;8.70;99.90
10312;DHT22;5201;48.776;9.128;2024-02-23T11:22:43;8.50;99.90
10312;DHT22;5201;48.776;9.128;2024-02-23T11:25:09;8.20;99.90
10312;DHT22;5201;48.776;9.128;2024-02-23T11:27:36;8.10;99.90
10312;DHT22;5201;48.776;9.128;2024-02-23T11:30:08;8.20;99.90
10312;DHT22;5201;48.776;9.128;2024-02-23T11:32:46;8.10;99.90
10312;DHT22;5201;48.776;9.128;2024-02-23T11:35:19;7.90;99.90
10312;DHT22;5201;48.776;9.128;2024-02-23T11:40:15;8.20;99.90
10312;DHT22;5201;48.776;9.128;2024-02-23T11:42:42;8.40;99.90
10312;DHT22;5201;48.776;9.128;2024-02-23T11:45:09;8.60;99.90
10312;DHT22;5201;48.776;9.128;2024-02-23T11:47:36;8.40;99.90
10312;DHT22;5201;48.776;9.128;2024-02-23T11:50:02;8.30;99.90
10312;DHT22;5201;48.776;9.128;2024-02-23T11:52:28;8.40;99.90
10312;DHT22;5201;48.776;9.128;2024-02-23T11:54:53;8.60;99.90
10312;DHT22;5201;48.776;9.128;2024-02-23T11:57:21;8.60;99.90
10312;DHT22;5201;48.776;9.128;2024-02-23T11:59:46;8.60;99.90
10312;DHT22;5201;48.776;9.128;2024-02-23T12:02:12;8.70;99.90
10312;DHT22;5201;48.776;9.128;2024-02-23T12:04:38;8.70;99.90
10312;DHT22;5201;48.776;9.128;2024-02-23T12:07:04;8.70;99.90
10312;DHT22;5201;48.776;9.128;2024-02-23T12:09:30;8.60;99.90
10312;DHT22;5201;48.776;9.128;2024-02-23T12:11:56;8.70;99.90
10312;DHT22;5201;48.776;9.128;2024-02-23T12:14:21;8.80;99.90
10312;DHT22;5201;48.776;9.128;2024-02-23T12:16:47;9.00;99.90
10312;DHT22;5201;48.776;9.128;2024-02-23T12:19:15;9.40;99.90
10312;DHT22;5201;48.776;9.128;2024-02-23T12:21:40;8.70;99.90
10312;DHT22;5201;48.776;9.128;2024-02-23T12:24:06;8.70;99.90
10312;DHT22;5201;48.776;9.128;2024-02-23T12:26:33;8.50;99.90
10312;DHT22;5201;48.776;9.128;2024-02-23T12:29:02;8.60;99.90
10312;DHT22;5201;48.776;9.128;2024-02-23T12:31:28;8.70;99.90
10312;DHT22;5201;48.776;9.128;2024-02-23T12:33:57;8.70;99.90
10312;DHT22;5201;48.776;9.128;2024-02-23T12:36:23;8.70;99.90
10312;DHT22;5201;48.776;9.128;2024-02-23T12:38:48;8.30;99.90
10312;DHT22;5201;48.776;9.128;2024-02-23T12:41:14;8.50;99.90
10312;DHT22;5201;48.776;9.128;2024-02-23T12:43:40;8.50;99.90
10312;DHT22;5201;48.776;9.128;2024-02-23T12:46:06;8.40;99.90
10312;DHT22;5201;48.776;9.128;2024-02-23T12:48:34;8.50;99.90
10312;DHT22;5201;48.776;9.128;2024-02-23T12:50:59;8.40;99.90
10312;DHT22;5201;48.776;9.128;2024-02-23T12:56:06;8.50;99.90
10312;DHT22;5201;48.776;9.128;2024-02-23T12:58:43;8.50;99.90
10312;DHT22;5201;48.776;9.128;2024-02-23T13:01:10;8.70;99.90
10312;DHT22;5201;48.776;9.128;2024-02-23T13:03:36;8.90;99.90
10312;DHT22;5201;48.776;9.128;2024-02-23T13:06:03;9.00;99.90
10312;DHT22;5201;48.776;9.128;2024-02-23T13:08:29;8.80;99.90
10312;DHT22;5201;48.776;9.128;2024-02-23T13:10:56;8.80;99.90
10312;DHT22;5201;48.776;9.128;2024-02-23T13:13:23;8.70;99.90
10312;DHT22;5201;48.776;9.128;2024-02-23T13:15:50;8.60;99.90
10312;DHT22;5201;48.776;9.128;2024-02-23T13:18:15;9.00;99.90
10312;DHT22;5201;48.776;9.128;2024-02-23T13:20:41;8.80;99.90
10312;DHT22;5201;48.776;9.128;2024-02-23T13:23:08;8.80;99.90
10312;DHT22;5201;48.776;9.128;2024-02-23T13:25:38;9.00;99.90
10312;DHT22;5201;48.776;9.128;2024-02-23T13:28:04;8.90;99.90
10312;DHT22;5201;48.776;9.128;2024-02-23T13:30:31;9.00;99.90
10312;DHT22;5201;48.776;9.128;2024-02-23T13:32:56;8.90;99.90
10312;DHT22;5201;48.776;9.128;2024-02-23T13:35:22;9.00;99.90
10312;DHT22;5201;48.776;9.128;2024-02-23T13:37:48;9.00;99.90
10312;DHT22;5201;48.776;9.128;2024-02-23T13:40:14;8.90;99.90
10312;DHT22;5201;48.776;9.128;2024-02-23T13:42:40;8.70;99.90
10312;DHT22;5201;48.776;9.128;2024-02-23T13:45:08;8.80;99.90
10312;DHT22;5201;48.776;9.128;2024-02-23T13:47:35;8.80;99.90
10312;DHT22;5201;48.776;9.128;2024-02-23T13:50:01;8.80;99.90
10312;DHT22;5201;48.776;9.128;2024-02-23T13:52:27;8.80;99.90
10312;DHT22;5201;48.776;9.128;2024-02-23T13:54:54;8.90;99.90
10312;DHT22;5201;48.776;9.128;2024-02-23T13:57:19;8.90;99.90
10312;DHT22;5201;48.776;9.128;2024-02-23T13:59:45;8.60;99.90
10312;DHT22;5201;48.776;9.128;2024-02-23T14:02:11;8.70;99.90
10312;DHT22;5201;48.776;9.128;2024-02-23T14:04:37;8.60;99.90
10312;DHT22;5201;48.776;9.128;2024-02-23T14:07:03;8.40;99.90
10312;DHT22;5201;48.776;9.128;2024-02-23T14:09:30;8.40;99.90
10312;DHT22;5201;48.776;9.128;2024-02-23T14:11:55;8.60;99.90
10312;DHT22;5201;48.776;9.128;2024-02-23T14:14:21;8.60;99.90
10312;DHT22;5201;48.776;9.128;2024-02-23T14:16:48;8.70;99.90
10312;DHT22;5201;48.776;9.128;2024-02-23T14:19:13;8.90;99.90
10312;DHT22;5201;48.776;9.128;2024-02-23T14:21:39;8.70;99.90
10312;DHT22;5201;48.776;9.128;2024-02-23T14:24:05;8.60;99.90
10312;DHT22;5201;48.776;9.128;2024-02-23T14:26:30;8.80;99.90
10312;DHT22;5201;48.776;9.128;2024-02-23T14:28:56;8.90;99.90
10312;DHT22;5201;48.776;9.128;2024-02-23T14:31:22;8.90;99.90
10312;DHT22;5201;48.776;9.128;2024-02-23T14:33:48;8.90;99.90
10312;DHT22;5201;48.776;9.128;2024-02-23T14:36:16;8.80;99.90
10312;DHT22;5201;48.776;9.128;2024-02-23T14:38:42;8.90;99.90
10312;DHT22;5201;48.776;9.128;2024-02-23T14:41:08;9.00;99.90
10312;DHT22;5201;48.776;9.128;2024-02-23T14:43:35;9.10;99.90
10312;DHT22;5201;48.776;9.128;2024-02-23T14:46:01;9.10;99.90
10312;DHT22;5201;48.776;9.128;2024-02-23T14:48:26;9.70;99.90
10312;DHT22;5201;48.776;9.128;2024-02-23T14:50:52;9.20;99.90
10312;DHT22;5201;48.776;9.128;2024-02-23T14:53:18;9.10;99.90
10312;DHT22;5201;48.776;9.128;2024-02-23T14:55:44;9.00;99.90
10312;DHT22;5201;48.776;9.128;2024-02-23T14:58:09;9.00;99.90
10312;DHT22;5201;48.776;9.128;2024-02-23T15:00:35;9.00;99.90
10312;DHT22;5201;48.776;9.128;2024-02-23T15:03:00;9.00;99.90
10312;DHT22;5201;48.776;9.128;2024-02-23T15:05:26;9.00;99.90
10312;DHT22;5201;48.776;9.128;2024-02-23T15:07:52;8.60;99.90
10312;DHT22;5201;48.776;9.128;2024-02-23T15:10:18;8.60;99.90
10312;DHT22;5201;48.776;9.128;2024-02-23T15:12:43;9.40;99.90
10312;DHT22;5201;48.776;9.128;2024-02-23T15:15:10;8.20;99.90
10312;DHT22;5201;48.776;9.128;2024-02-23T15:17:35;8.80;99.90
10312;DHT22;5201;48.776;9.128;2024-02-23T15:20:01;8.50;99.90
10312;DHT22;5201;48.776;9.128;2024-02-23T15:22:27;8.40;99.90
10312;DHT22;5201;48.776;9.128;2024-02-23T15:24:54;8.70;99.90
10312;DHT22;5201;48.776;9.128;2024-02-23T15:27:20;8.50;99.90
10312;DHT22;5201;48.776;9.128;2024-02-23T15:29:46;8.50;99.90
10312;DHT22;5201;48.776;9.128;2024-02-23T15:32:13;8.40;99.90
10312;DHT22;5201;48.776;9.128;2024-02-23T15:34:39;8.50;99.90
10312;DHT22;5201;48.776;9.128;2024-02-23T15:37:05;8.60;99.90
10312;DHT22;5201;48.776;9.128;2024-02-23T15:39:31;8.60;99.90
10312;DHT22;5201;48.776;9.128;2024-02-23T15:41:57;8.80;99.90
10312;DHT22;5201;48.776;9.128;2024-02-23T15:44:23;8.80;99.90
10312;DHT22;5201;48.776;9.128;2024-02-23T15:46:48;8.80;99.90
10312;DHT22;5201;48.776;9.128;2024-02-23T15:49:14;8.90;99.90
10312;DHT22;5201;48.776;9.128;2024-02-23T15:51:43;9.00;99.90
10312;DHT22;5201;48.776;9.128;2024-02-23T15:54:09;9.10;99.90
10312;DHT22;5201;48.776;9.128;2024-02-23T15:56:34;9.10;99.90
10312;DHT22;5201;48.776;9.128;2024-02-23T15:59:00;9.10;99.90
10312;DHT22;5201;48.776;9.128;2024-02-23T16:01:33;9.20;99.90